Time;durP1;ratioP1;P1;durP2;ratioP2;P2;SDS_P1;SDS_P2;PMS_P1;PMS_P2;Temp;Humidity;BMP_temperature;BMP_pressure;BME280_temperature;BME280_humidity;BME280_pressure;Samples;Min_cycle;Max_cycle;Signal;HPM_P1;HPM_P2
2021/10/29 00:01:13;;;;;;;18.08;13.65;;;;;;;;;;4994086;28;20208;-77
2021/10/29 00:03:39;;;;;;;17.80;12.27;;;;;;;;;;4994453;28;20222;-78
2021/10/29 00:06:05;;;;;;;18.77;13.73;;;;;;;;;;4993220;28;20411;-79
2021/10/29 00:08:31;;;;;;;20.50;14.10;;;;;;;;;;4994352;28;20172;-78
2021/10/29 00:10:57;;;;;;;14.02;11.13;;;;;;;;;;4994199;28;20202;-78
2021/10/29 00:13:23;;;;;;;16.80;12.63;;;;;;;;;;4994338;28;20195;-78
2021/10/29 00:15:49;;;;;;;16.20;12.40;;;;;;;;;;4994361;28;20620;-77
2021/10/29 00:18:15;;;;;;;19.13;12.50;;;;;;;;;;4994088;28;20422;-76
2021/10/29 00:20:41;;;;;;;17.57;13.70;;;;;;;;;;4994843;28;20171;-77
2021/10/29 00:23:07;;;;;;;22.83;11.40;;;;;;;;;;4993762;28;20434;-77
2021/10/29 00:25:33;;;;;;;20.27;12.38;;;;;;;;;;4992286;28;20457;-75
2021/10/29 00:27:59;;;;;;;15.87;13.33;;;;;;;;;;4993998;28;20206;-77
2021/10/29 00:30:26;;;;;;;23.27;14.38;;;;;;;;;;4993967;28;20438;-75
2021/10/29 00:32:52;;;;;;;20.80;15.10;;;;;;;;;;4993733;28;20210;-77
2021/10/29 00:35:18;;;;;;;21.70;14.80;;;;;;;;;;4994128;28;20634;-76
2021/10/29 00:37:44;;;;;;;25.85;17.35;;;;;;;;;;4994096;28;20175;-78
2021/10/29 00:40:11;;;;;;;19.73;14.40;;;;;;;;;;4994110;28;20644;-76
2021/10/29 00:42:38;;;;;;;28.30;14.45;;;;;;;;;;4992363;28;20542;-77
2021/10/29 00:45:05;;;;;;;21.98;15.02;;;;;;;;;;4976780;28;20188;-78
2021/10/29 00:47:31;;;;;;;24.83;15.80;;;;;;;;;;4993717;28;20171;-78
2021/10/29 00:49:57;;;;;;;22.40;16.80;;;;;;;;;;4992560;28;20722;-78
2021/10/29 00:52:23;;;;;;;22.65;16.38;;;;;;;;;;4993347;28;20743;-78
2021/10/29 00:54:49;;;;;;;30.60;17.80;;;;;;;;;;4992482;28;20222;-76
2021/10/29 00:57:15;;;;;;;24.90;16.02;;;;;;;;;;4993738;28;20872;-77
2021/10/29 00:59:41;;;;;;;24.43;16.00;;;;;;;;;;4992564;28;20179;-75
2021/10/29 01:02:07;;;;;;;25.47;16.87;;;;;;;;;;4993184;28;20434;-78
2021/10/29 01:04:33;;;;;;;28.67;18.10;;;;;;;;;;4993632;28;20891;-76
2021/10/29 01:07:00;;;;;;;32.55;18.40;;;;;;;;;;4993623;28;20187;-78
2021/10/29 01:09:26;;;;;;;31.27;18.10;;;;;;;;;;4993600;28;20282;-76
2021/10/29 01:11:52;;;;;;;25.25;16.63;;;;;;;;;;4975903;28;20282;-77
2021/10/29 01:14:18;;;;;;;24.05;16.90;;;;;;;;;;4993538;28;20186;-76
2021/10/29 01:16:44;;;;;;;26.00;16.75;;;;;;;;;;4993441;28;20634;-77
2021/10/29 01:19:10;;;;;;;24.63;19.02;;;;;;;;;;4993478;28;20548;-76
2021/10/29 01:21:37;;;;;;;26.90;17.55;;;;;;;;;;4993128;28;20195;-79
2021/10/29 01:24:03;;;;;;;26.83;17.55;;;;;;;;;;4993459;28;20202;-78
2021/10/29 01:26:29;;;;;;;27.30;16.38;;;;;;;;;;4993633;28;20186;-76
2021/10/29 01:28:56;;;;;;;28.90;18.52;;;;;;;;;;4993523;28;20183;-77
2021/10/29 01:31:23;;;;;;;30.25;18.85;;;;;;;;;;4993698;28;20202;-79
2021/10/29 01:33:49;;;;;;;30.25;19.00;;;;;;;;;;4994069;28;20620;-77
2021/10/29 01:36:15;;;;;;;29.43;19.00;;;;;;;;;;4992125;28;20358;-79
2021/10/29 01:38:42;;;;;;;26.07;16.93;;;;;;;;;;4996655;28;20414;-76
2021/10/29 01:41:09;;;;;;;24.85;16.75;;;;;;;;;;4996765;28;20406;-76
2021/10/29 01:43:39;;;;;;;28.65;17.45;;;;;;;;;;4995789;28;20186;-77
2021/10/29 01:46:05;;;;;;;25.52;16.23;;;;;;;;;;4997068;28;20510;-77
2021/10/29 01:48:31;;;;;;;23.50;14.73;;;;;;;;;;4996835;28;20242;-78
2021/10/29 01:50:57;;;;;;;25.30;16.60;;;;;;;;;;4996649;28;20458;-78
2021/10/29 01:53:23;;;;;;;24.50;15.53;;;;;;;;;;4996823;28;20445;-78
2021/10/29 01:55:49;;;;;;;23.45;17.38;;;;;;;;;;4996866;28;20462;-77
2021/10/29 01:58:16;;;;;;;30.23;17.73;;;;;;;;;;4996823;28;20203;-78
2021/10/29 02:00:42;;;;;;;29.67;17.50;;;;;;;;;;4996533;28;20168;-78
2021/10/29 02:03:08;;;;;;;20.52;14.60;;;;;;;;;;4996275;28;20203;-77
2021/10/29 02:05:36;;;;;;;29.17;16.70;;;;;;;;;;4996752;28;20542;-78
2021/10/29 02:08:02;;;;;;;19.73;13.77;;;;;;;;;;4996618;28;20624;-76
2021/10/29 02:10:28;;;;;;;25.87;15.70;;;;;;;;;;4996551;28;20214;-78
2021/10/29 02:12:54;;;;;;;22.52;15.00;;;;;;;;;;4995821;28;20502;-78
2021/10/29 02:15:20;;;;;;;20.65;14.95;;;;;;;;;;4996450;28;20187;-77
2021/10/29 02:17:46;;;;;;;20.10;14.75;;;;;;;;;;4996638;28;20629;-76
2021/10/29 02:20:12;;;;;;;31.63;15.50;;;;;;;;;;4996585;28;20184;-78
2021/10/29 02:22:38;;;;;;;24.33;15.95;;;;;;;;;;4995974;28;20429;-78
2021/10/29 02:25:05;;;;;;;26.50;16.20;;;;;;;;;;4996256;28;20218;-77
2021/10/29 02:27:34;;;;;;;22.45;15.15;;;;;;;;;;4996224;28;20184;-77
2021/10/29 02:30:00;;;;;;;21.88;14.80;;;;;;;;;;4996224;28;20647;-76
2021/10/29 02:32:26;;;;;;;21.48;14.52;;;;;;;;;;4995674;28;20322;-77
2021/10/29 02:34:52;;;;;;;25.02;15.10;;;;;;;;;;4996035;28;20194;-77
2021/10/29 02:37:18;;;;;;;23.25;14.88;;;;;;;;;;4995886;28;20199;-78
2021/10/29 02:39:44;;;;;;;17.95;12.90;;;;;;;;;;4996093;28;20171;-76
2021/10/29 02:42:10;;;;;;;19.70;13.23;;;;;;;;;;4995857;28;20211;-78
2021/10/29 02:44:36;;;;;;;18.40;11.90;;;;;;;;;;4994910;28;20609;-76
2021/10/29 02:47:03;;;;;;;18.80;13.30;;;;;;;;;;4995980;28;20580;-78
2021/10/29 02:49:29;;;;;;;18.42;12.93;;;;;;;;;;4994971;28;20219;-78
2021/10/29 02:51:54;;;;;;;21.70;12.27;;;;;;;;;;4994283;28;20203;-77
2021/10/29 02:54:20;;;;;;;21.97;13.33;;;;;;;;;;4995929;28;20415;-76
2021/10/29 02:56:47;;;;;;;19.83;13.50;;;;;;;;;;4995714;28;20962;-77
2021/10/29 02:59:13;;;;;;;17.30;12.80;;;;;;;;;;4995546;28;20518;-79
2021/10/29 03:01:39;;;;;;;17.02;12.10;;;;;;;;;;4995134;28;20203;-79
2021/10/29 03:04:05;;;;;;;16.90;12.48;;;;;;;;;;4995502;28;20210;-78
2021/10/29 03:06:31;;;;;;;20.58;11.77;;;;;;;;;;4994286;28;20270;-77
2021/10/29 03:08:57;;;;;;;18.53;12.40;;;;;;;;;;4995450;28;20726;-78
2021/10/29 03:11:23;;;;;;;20.27;13.53;;;;;;;;;;4993720;28;20419;-76
2021/10/29 03:13:50;;;;;;;17.20;12.40;;;;;;;;;;4995294;28;20823;-77
2021/10/29 03:16:16;;;;;;;18.73;12.23;;;;;;;;;;4995365;28;20257;-79
2021/10/29 03:18:42;;;;;;;17.30;12.70;;;;;;;;;;4994170;28;20183;-77
2021/10/29 03:21:08;;;;;;;19.00;11.25;;;;;;;;;;4996615;28;20286;-79
2021/10/29 03:23:36;;;;;;;18.73;13.27;;;;;;;;;;4993780;28;20286;-78
2021/10/29 03:26:02;;;;;;;15.18;11.13;;;;;;;;;;4995151;28;20811;-78
2021/10/29 03:28:28;;;;;;;22.13;11.40;;;;;;;;;;4995171;28;20179;-77
2021/10/29 03:30:54;;;;;;;17.20;11.30;;;;;;;;;;4994672;28;21014;-77
2021/10/29 03:33:21;;;;;;;16.42;11.50;;;;;;;;;;4995082;28;20199;-79
2021/10/29 03:35:47;;;;;;;14.25;10.82;;;;;;;;;;4994810;28;20203;-77
2021/10/29 03:41:10;;;;;;;14.02;10.15;;;;;;;;;;4970747;28;20208;-80
2021/10/29 03:43:48;;;;;;;16.77;11.00;;;;;;;;;;4994749;28;20222;-78
2021/10/29 03:46:23;;;;;;;15.50;10.77;;;;;;;;;;4994958;28;20258;-77
2021/10/29 03:52:07;;;;;;;14.07;10.63;;;;;;;;;;4994475;28;20207;-79
2021/10/29 03:59:32;;;;;;;15.65;10.88;;;;;;;;;;4972066;28;20884;-76
2021/10/29 04:01:58;;;;;;;18.65;11.57;;;;;;;;;;4992788;28;20657;-79
2021/10/29 04:04:24;;;;;;;14.05;10.80;;;;;;;;;;4993198;28;20756;-77
2021/10/29 04:06:50;;;;;;;16.83;10.85;;;;;;;;;;4993106;28;20190;-79
2021/10/29 04:09:17;;;;;;;13.13;10.80;;;;;;;;;;4994316;28;20731;-78
2021/10/29 04:11:43;;;;;;;14.73;10.55;;;;;;;;;;4992530;28;20538;-78
2021/10/29 04:14:12;;;;;;;13.55;10.27;;;;;;;;;;4992965;28;20190;-77
2021/10/29 04:16:39;;;;;;;14.57;8.98;;;;;;;;;;4992968;28;20218;-78
2021/10/29 04:19:14;;;;;;;15.38;9.15;;;;;;;;;;4992937;28;20203;-78
2021/10/29 04:21:39;;;;;;;12.13;8.73;;;;;;;;;;4994084;28;20183;-77
2021/10/29 04:24:07;;;;;;;13.10;8.13;;;;;;;;;;4994236;28;20179;-78
2021/10/29 04:26:34;;;;;;;10.65;8.30;;;;;;;;;;4994244;28;20414;-78
2021/10/29 04:29:01;;;;;;;11.98;9.45;;;;;;;;;;4994137;28;20199;-79
2021/10/29 04:31:31;;;;;;;19.70;11.57;;;;;;;;;;4993695;28;20191;-79
2021/10/29 04:33:58;;;;;;;20.23;11.70;;;;;;;;;;4994017;28;20325;-80
2021/10/29 04:36:24;;;;;;;18.02;13.00;;;;;;;;;;4996291;28;20199;-77
2021/10/29 04:38:51;;;;;;;25.27;13.68;;;;;;;;;;4996694;28;20211;-78
2021/10/29 04:41:17;;;;;;;18.80;12.63;;;;;;;;;;4995393;28;20171;-76
2021/10/29 04:43:43;;;;;;;16.45;11.52;;;;;;;;;;4995059;28;20635;-76
2021/10/29 04:46:09;;;;;;;20.27;11.98;;;;;;;;;;4993781;28;20175;-78
2021/10/29 04:48:36;;;;;;;20.23;12.02;;;;;;;;;;4993779;28;20174;-77
2021/10/29 04:51:02;;;;;;;21.63;13.13;;;;;;;;;;4993477;28;20211;-76
2021/10/29 04:53:28;;;;;;;17.87;12.57;;;;;;;;;;4993816;28;20223;-78
2021/10/29 04:55:54;;;;;;;23.70;13.73;;;;;;;;;;4993785;28;20462;-79
2021/10/29 04:58:20;;;;;;;18.95;12.30;;;;;;;;;;4993722;28;20250;-77
2021/10/29 05:00:47;;;;;;;18.95;12.90;;;;;;;;;;4993852;28;20187;-78
2021/10/29 05:03:13;;;;;;;20.00;13.07;;;;;;;;;;4993478;28;20191;-76
2021/10/29 05:05:40;;;;;;;19.87;13.17;;;;;;;;;;4992536;28;20175;-78
2021/10/29 05:08:06;;;;;;;21.75;13.38;;;;;;;;;;4993506;28;20781;-78
2021/10/29 05:10:32;;;;;;;19.45;12.80;;;;;;;;;;4993513;28;20188;-78
2021/10/29 05:12:59;;;;;;;20.23;14.02;;;;;;;;;;4995439;28;20540;-76
2021/10/29 05:15:25;;;;;;;21.25;13.32;;;;;;;;;;4997683;28;20551;-79
2021/10/29 05:17:53;;;;;;;20.48;13.55;;;;;;;;;;4997518;28;20660;-76
2021/10/29 05:20:19;;;;;;;19.40;13.30;;;;;;;;;;4997400;28;20172;-78
2021/10/29 05:22:45;;;;;;;19.50;11.90;;;;;;;;;;4997059;28;20207;-76
2021/10/29 05:25:11;;;;;;;22.60;12.25;;;;;;;;;;4997477;28;20418;-80
2021/10/29 05:27:37;;;;;;;23.75;13.07;;;;;;;;;;4997336;28;20187;-78
2021/10/29 05:30:08;;;;;;;19.05;11.90;;;;;;;;;;4997345;28;20201;-78
2021/10/29 05:32:34;;;;;;;16.73;11.57;;;;;;;;;;4996601;28;20599;-76
2021/10/29 05:35:00;;;;;;;15.80;10.30;;;;;;;;;;4995818;28;20217;-78
2021/10/29 05:37:30;;;;;;;17.08;10.68;;;;;;;;;;4997216;28;20593;-78
2021/10/29 05:39:57;;;;;;;19.63;12.02;;;;;;;;;;4997360;28;20205;-77
2021/10/29 05:42:23;;;;;;;22.13;12.45;;;;;;;;;;4996774;28;20287;-77
2021/10/29 05:44:49;;;;;;;18.60;12.30;;;;;;;;;;4997159;28;20234;-77
2021/10/29 05:47:16;;;;;;;20.27;13.20;;;;;;;;;;4997122;28;20548;-78
2021/10/29 05:49:42;;;;;;;18.48;12.80;;;;;;;;;;4995811;28;20211;-78
2021/10/29 05:52:15;;;;;;;21.27;14.30;;;;;;;;;;4996724;28;20282;-78
2021/10/29 05:57:23;;;;;;;22.25;14.98;;;;;;;;;;4995992;28;20295;-77
2021/10/29 05:59:50;;;;;;;22.77;14.40;;;;;;;;;;4996866;28;20258;-78
2021/10/29 06:02:16;;;;;;;22.23;15.68;;;;;;;;;;4996360;28;20187;-76
2021/10/29 06:04:42;;;;;;;24.23;15.77;;;;;;;;;;4996580;28;20182;-77
2021/10/29 06:07:08;;;;;;;29.08;16.50;;;;;;;;;;4996648;28;20183;-77
2021/10/29 06:09:35;;;;;;;26.73;16.73;;;;;;;;;;4996590;28;20250;-77
2021/10/29 06:12:01;;;;;;;31.58;18.23;;;;;;;;;;4996134;28;20441;-78
2021/10/29 06:14:27;;;;;;;30.95;16.52;;;;;;;;;;4996420;28;20172;-77
2021/10/29 06:16:57;;;;;;;33.78;18.20;;;;;;;;;;4996236;28;20201;-77
2021/10/29 06:19:23;;;;;;;35.63;18.38;;;;;;;;;;4995214;28;20175;-79
2021/10/29 06:24:17;;;;;;;33.50;17.87;;;;;;;;;;4996394;28;20644;-77
2021/10/29 06:26:51;;;;;;;39.47;20.13;;;;;;;;;;4996516;28;20418;-78
2021/10/29 06:29:17;;;;;;;36.13;19.55;;;;;;;;;;4996455;28;20167;-78
2021/10/29 06:31:43;;;;;;;36.40;19.00;;;;;;;;;;4995899;28;20223;-78
2021/10/29 06:34:10;;;;;;;37.83;19.35;;;;;;;;;;4996318;28;20180;-79
2021/10/29 06:36:37;;;;;;;44.17;21.23;;;;;;;;;;4996167;28;20210;-78
2021/10/29 06:39:03;;;;;;;47.78;21.10;;;;;;;;;;4996018;28;20522;-78
2021/10/29 06:41:29;;;;;;;36.45;18.13;;;;;;;;;;4995818;28;20172;-78
2021/10/29 07:39:58;;;;;;;35.35;18.00;;;;;;;;;;4994188;28;20202;-78
2021/10/29 07:40:46;;;;;;;31.55;18.67;;;;;;;;;;4993681;28;20255;-75
2021/10/29 07:43:15;;;;;;;30.92;16.67;;;;;;;;;;4993018;28;20278;-75
2021/10/29 07:45:42;;;;;;;24.90;16.65;;;;;;;;;;4991118;28;20195;-76
2021/10/29 07:48:08;;;;;;;30.20;17.17;;;;;;;;;;4993360;28;20183;-77
2021/10/29 07:50:34;;;;;;;23.60;15.48;;;;;;;;;;4992952;28;20263;-78
2021/10/29 07:53:02;;;;;;;25.85;15.18;;;;;;;;;;4992213;28;20626;-79
2021/10/29 07:55:29;;;;;;;27.50;15.48;;;;;;;;;;4991357;28;20179;-78
2021/10/29 07:58:03;;;;;;;22.35;13.05;;;;;;;;;;4992557;28;20609;-76
2021/10/29 08:00:29;;;;;;;25.30;14.32;;;;;;;;;;4991265;28;20217;-76
2021/10/29 08:02:57;;;;;;;20.92;12.55;;;;;;;;;;4992618;28;20736;-78
2021/10/29 08:05:23;;;;;;;25.13;14.52;;;;;;;;;;4992926;28;20286;-78
2021/10/29 08:07:49;;;;;;;22.58;13.80;;;;;;;;;;4992331;28;20190;-76
2021/10/29 08:10:15;;;;;;;25.70;13.77;;;;;;;;;;4992469;28;20214;-76
2021/10/29 08:12:42;;;;;;;23.50;13.68;;;;;;;;;;4992618;28;20207;-76
2021/10/29 08:15:08;;;;;;;19.88;12.88;;;;;;;;;;4974423;28;20289;-78
2021/10/29 08:17:36;;;;;;;16.65;12.00;;;;;;;;;;4992212;28;20573;-75
2021/10/29 08:20:04;;;;;;;22.13;11.93;;;;;;;;;;4994267;28;20163;-77
2021/10/29 08:22:30;;;;;;;19.38;12.75;;;;;;;;;;4993959;28;20207;-77
2021/10/29 08:24:56;;;;;;;20.20;11.75;;;;;;;;;;4994160;28;20740;-77
2021/10/29 08:27:22;;;;;;;14.73;9.57;;;;;;;;;;4992837;28;20196;-77
2021/10/29 08:29:48;;;;;;;18.23;10.63;;;;;;;;;;4994071;28;20191;-77
2021/10/29 08:32:15;;;;;;;13.10;9.15;;;;;;;;;;4993599;28;20245;-77
2021/10/29 08:34:41;;;;;;;12.48;8.02;;;;;;;;;;4994107;28;20175;-77
2021/10/29 08:37:08;;;;;;;10.93;8.25;;;;;;;;;;4993943;28;20207;-79
2021/10/29 08:39:35;;;;;;;12.77;8.63;;;;;;;;;;4992903;28;20172;-78
2021/10/29 08:42:02;;;;;;;16.02;8.63;;;;;;;;;;4993710;28;20195;-79
2021/10/29 08:44:29;;;;;;;16.15;8.18;;;;;;;;;;4994063;28;20573;-78
2021/10/29 08:46:59;;;;;;;11.13;8.00;;;;;;;;;;4993036;28;20175;-78
2021/10/29 08:49:26;;;;;;;14.02;8.63;;;;;;;;;;4993760;28;20182;-77
2021/10/29 08:51:52;;;;;;;10.87;7.73;;;;;;;;;;4993270;28;20191;-78
2021/10/29 08:54:20;;;;;;;15.13;9.03;;;;;;;;;;4993933;28;20430;-79
2021/10/29 08:56:46;;;;;;;12.23;7.80;;;;;;;;;;4993831;28;20429;-78
2021/10/29 09:01:53;;;;;;;9.60;7.97;;;;;;;;;;4993246;28;20418;-78
2021/10/29 09:04:36;;;;;;;12.23;7.97;;;;;;;;;;4993737;28;20406;-79
2021/10/29 09:31:22;;;;;;;7.50;6.40;;;;;;;;;;4993635;28;20537;-80
2021/10/29 09:33:59;;;;;;;6.33;5.07;;;;;;;;;;4994000;28;20453;-79
2021/10/29 09:36:26;;;;;;;8.17;5.27;;;;;;;;;;4993435;28;20815;-78
2021/10/29 09:39:06;;;;;;;8.10;4.73;;;;;;;;;;4993355;28;20407;-79
2021/10/29 09:41:32;;;;;;;6.90;5.20;;;;;;;;;;4993078;28;20422;-79
2021/10/29 09:44:00;;;;;;;10.43;5.57;;;;;;;;;;4993297;28;20483;-77
2021/10/29 09:46:30;;;;;;;11.13;6.10;;;;;;;;;;4994768;28;20417;-78
2021/10/29 09:49:05;;;;;;;4.93;4.43;;;;;;;;;;4993365;28;20423;-77
2021/10/29 09:51:47;;;;;;;8.93;5.10;;;;;;;;;;4993213;28;20511;-78
2021/10/29 09:54:16;;;;;;;7.73;4.63;;;;;;;;;;4992056;28;20751;-78
2021/10/29 09:56:48;;;;;;;7.57;4.70;;;;;;;;;;4992223;28;20870;-77
2021/10/29 09:59:14;;;;;;;7.80;4.50;;;;;;;;;;4994560;28;20837;-77
2021/10/29 10:01:46;;;;;;;5.27;4.67;;;;;;;;;;4996627;28;20475;-79
2021/10/29 10:04:12;;;;;;;6.53;4.40;;;;;;;;;;4995529;28;20381;-78
2021/10/29 10:06:40;;;;;;;10.50;4.70;;;;;;;;;;4996760;28;20445;-77
2021/10/29 10:09:08;;;;;;;10.00;4.67;;;;;;;;;;4996598;28;20388;-76
2021/10/29 10:11:35;;;;;;;7.07;3.57;;;;;;;;;;4996306;28;20429;-78
2021/10/29 10:14:02;;;;;;;4.27;3.60;;;;;;;;;;4996411;28;20439;-78
2021/10/29 10:16:29;;;;;;;6.07;3.37;;;;;;;;;;4996251;28;20433;-76
2021/10/29 10:18:56;;;;;;;5.10;3.97;;;;;;;;;;4995656;28;20386;-76
2021/10/29 10:21:25;;;;;;;4.40;3.43;;;;;;;;;;4996525;28;20465;-77
2021/10/29 10:23:55;;;;;;;7.40;3.30;;;;;;;;;;4996445;28;20486;-77
2021/10/29 10:45:48;;;;;;;9.33;4.70;;;;;;;;;;4996492;28;20485;-75
2021/10/29 10:48:21;;;;;;;6.63;4.17;;;;;;;;;;4996029;28;20403;-78
2021/10/29 10:50:48;;;;;;;8.10;5.30;;;;;;;;;;4995931;28;20874;-75
2021/10/29 10:53:28;;;;;;;7.80;5.10;;;;;;;;;;4995706;28;20427;-74
2021/10/29 10:59:02;;;;;;;8.70;4.10;;;;;;;;;;4995755;28;20394;-77
2021/10/29 11:07:16;;;;;;;4.43;4.03;;;;;;;;;;4995712;28;20419;-75
2021/10/29 11:12:21;;;;;;;4.93;4.00;;;;;;;;;;4995159;28;20434;-75
2021/10/29 11:15:04;;;;;;;6.10;3.90;;;;;;;;;;4995237;28;20423;-77
2021/10/29 11:17:58;;;;;;;6.13;3.97;;;;;;;;;;4995317;28;20472;-75
2021/10/29 11:20:41;;;;;;;4.03;3.60;;;;;;;;;;4992603;28;20415;-77
2021/10/29 11:23:19;;;;;;;5.70;3.63;;;;;;;;;;4994766;28;20430;-76
2021/10/29 11:25:49;;;;;;;4.90;3.00;;;;;;;;;;4995319;28;20382;-77
2021/10/29 11:28:15;;;;;;;6.23;4.00;;;;;;;;;;4995269;28;20397;-77
2021/10/29 11:30:42;;;;;;;6.03;3.70;;;;;;;;;;4995023;28;20878;-77
2021/10/29 11:33:08;;;;;;;4.27;3.80;;;;;;;;;;4994597;28;20412;-79
2021/10/29 11:35:34;;;;;;;5.83;3.80;;;;;;;;;;4995147;28;20423;-80
2021/10/29 11:38:01;;;;;;;5.87;3.30;;;;;;;;;;4995018;28;20397;-76
2021/10/29 11:40:27;;;;;;;4.90;2.90;;;;;;;;;;4994792;28;20911;-77
2021/10/29 11:42:57;;;;;;;4.20;2.70;;;;;;;;;;4994493;28;20431;-77
2021/10/29 11:45:34;;;;;;;3.40;2.20;;;;;;;;;;4994962;28;20416;-79
2021/10/29 11:48:01;;;;;;;4.50;2.27;;;;;;;;;;4994876;28;20486;-78
2021/10/29 11:50:27;;;;;;;4.10;2.77;;;;;;;;;;4993700;28;20393;-80
2021/10/29 11:52:53;;;;;;;3.13;2.40;;;;;;;;;;4994615;28;20750;-78
2021/10/29 11:55:33;;;;;;;2.97;2.67;;;;;;;;;;4994963;28;20940;-78
2021/10/29 11:58:09;;;;;;;4.23;2.20;;;;;;;;;;4994927;28;20425;-78
2021/10/29 12:09:00;;;;;;;5.80;2.40;;;;;;;;;;4994525;28;20398;-77
2021/10/29 12:11:28;;;;;;;4.10;2.67;;;;;;;;;;4993995;28;20410;-77
2021/10/29 12:13:59;;;;;;;2.43;2.10;;;;;;;;;;4994262;28;20399;-77
2021/10/29 12:16:27;;;;;;;3.17;2.10;;;;;;;;;;4994286;28;20454;-76
2021/10/29 12:19:04;;;;;;;3.87;2.30;;;;;;;;;;4994182;28;20382;-77
2021/10/29 12:21:39;;;;;;;4.43;2.27;;;;;;;;;;4993652;28;20486;-78
2021/10/29 12:24:11;;;;;;;4.03;2.27;;;;;;;;;;4994233;28;20880;-78
2021/10/29 12:26:39;;;;;;;4.00;2.40;;;;;;;;;;4994238;28;20480;-76
2021/10/29 12:29:18;;;;;;;6.20;2.20;;;;;;;;;;4993028;28;20434;-78
2021/10/29 12:36:43;;;;;;;5.43;1.90;;;;;;;;;;4994370;28;20433;-77
2021/10/29 12:51:58;;;;;;;3.53;2.50;;;;;;;;;;4993531;28;20576;-78
2021/10/29 12:58:48;;;;;;;6.10;2.70;;;;;;;;;;4993894;28;20865;-77
2021/10/29 13:03:24;;;;;;;2.70;2.30;;;;;;;;;;4983379;28;20423;-77
2021/10/29 13:05:57;;;;;;;8.70;2.80;;;;;;;;;;4993689;28;20806;-78
2021/10/29 13:08:24;;;;;;;3.17;2.30;;;;;;;;;;4993760;28;20467;-78
2021/10/29 13:10:54;;;;;;;4.07;2.40;;;;;;;;;;4993426;28;20469;-76
2021/10/29 13:13:26;;;;;;;3.03;2.30;;;;;;;;;;4993469;28;20437;-78
2021/10/29 13:15:58;;;;;;;2.17;1.90;;;;;;;;;;4991956;28;20938;-76
2021/10/29 13:18:27;;;;;;;2.83;2.53;;;;;;;;;;4993575;28;20411;-76
2021/10/29 13:21:20;;;;;;;2.80;2.13;;;;;;;;;;4993502;28;20832;-76
2021/10/29 13:28:56;;;;;;;5.53;2.77;;;;;;;;;;4993647;28;20943;-76
2021/10/29 13:37:31;;;;;;;3.97;2.30;;;;;;;;;;4994156;28;20474;-77
2021/10/29 13:51:18;;;;;;;3.83;2.33;;;;;;;;;;4996967;28;20460;-76
2021/10/29 13:54:07;;;;;;;3.37;2.37;;;;;;;;;;4997045;28;20833;-75
2021/10/29 14:01:55;;;;;;;3.23;2.53;;;;;;;;;;4996573;28;20495;-77
2021/10/29 14:32:41;;;;;;;4.97;2.40;;;;;;;;;;4996147;28;20515;-77
2021/10/29 14:34:33;;;;;;;3.40;2.73;;;;;;;;;;4995470;28;20409;-77
2021/10/29 14:42:24;;;;;;;3.30;2.20;;;;;;;;;;4995831;28;20434;-76
2021/10/29 14:45:25;;;;;;;3.73;2.50;;;;;;;;;;4994417;28;20493;-76
2021/10/29 15:26:58;;;;;;;3.97;2.40;;;;;;;;;;4995289;28;20392;-77
2021/10/29 15:45:48;;;;;;;5.43;2.33;;;;;;;;;;4995085;28;20783;-77
2021/10/29 15:48:26;;;;;;;7.23;2.83;;;;;;;;;;4995117;28;20428;-76
2021/10/29 15:50:52;;;;;;;3.17;2.43;;;;;;;;;;4994655;28;20385;-78
2021/10/29 15:53:18;;;;;;;5.77;2.33;;;;;;;;;;4994339;28;20405;-77
2021/10/29 15:56:03;;;;;;;7.43;5.13;;;;;;;;;;4994101;28;20388;-77
2021/10/29 16:01:37;;;;;;;4.27;2.83;;;;;;;;;;4993162;28;20385;-77
2021/10/29 16:17:48;;;;;;;2.67;2.37;;;;;;;;;;4994190;28;20448;-78
2021/10/29 16:20:14;;;;;;;5.77;2.97;;;;;;;;;;4994218;28;20778;-77
2021/10/29 16:22:40;;;;;;;5.33;3.20;;;;;;;;;;4993815;28;20423;-78
2021/10/29 16:25:17;;;;;;;6.33;3.17;;;;;;;;;;4994058;28;20470;-76
2021/10/29 16:30:30;;;;;;;3.67;2.83;;;;;;;;;;4994380;28;20408;-78
2021/10/29 16:35:29;;;;;;;3.67;3.10;;;;;;;;;;4993900;28;20522;-77
2021/10/29 16:37:55;;;;;;;4.27;3.07;;;;;;;;;;4993991;28;21017;-76
2021/10/29 16:40:24;;;;;;;3.90;2.93;;;;;;;;;;4994186;28;20381;-76
2021/10/29 16:42:50;;;;;;;3.90;2.87;;;;;;;;;;4993596;28;20764;-76
2021/10/29 16:45:17;;;;;;;4.07;3.40;;;;;;;;;;4993874;28;20776;-77
2021/10/29 16:47:43;;;;;;;8.87;2.80;;;;;;;;;;4993802;28;20393;-76
2021/10/29 16:50:10;;;;;;;5.73;3.30;;;;;;;;;;4993848;28;20426;-75
2021/10/29 16:52:36;;;;;;;5.43;3.10;;;;;;;;;;4992083;28;20864;-78
2021/10/29 16:55:02;;;;;;;4.57;2.80;;;;;;;;;;4993882;28;20446;-77
2021/10/29 16:57:28;;;;;;;4.90;3.20;;;;;;;;;;4993787;28;20507;-78
2021/10/29 16:59:54;;;;;;;5.40;3.10;;;;;;;;;;4993949;28;20415;-77
2021/10/29 17:02:20;;;;;;;5.23;3.40;;;;;;;;;;4992138;28;20538;-77
2021/10/29 17:04:46;;;;;;;7.00;2.73;;;;;;;;;;4993722;28;20914;-76
2021/10/29 17:07:12;;;;;;;3.30;2.60;;;;;;;;;;4993781;28;20482;-77
2021/10/29 17:09:39;;;;;;;9.17;4.70;;;;;;;;;;4997155;28;20786;-75
2021/10/29 17:12:05;;;;;;;9.13;5.13;;;;;;;;;;4997292;28;20460;-76
2021/10/29 17:14:31;;;;;;;14.77;5.80;;;;;;;;;;4997571;28;20414;-76
2021/10/29 17:16:58;;;;;;;10.90;6.37;;;;;;;;;;4996499;28;20437;-76
2021/10/29 17:19:24;;;;;;;17.70;7.23;;;;;;;;;;4997557;28;20407;-76
2021/10/29 17:21:50;;;;;;;11.10;4.20;;;;;;;;;;4997125;28;20434;-75
2021/10/29 17:24:18;;;;;;;4.83;3.53;;;;;;;;;;4997555;28;20768;-76
2021/10/29 17:26:44;;;;;;;9.30;3.90;;;;;;;;;;4997473;28;20419;-76
2021/10/29 17:29:10;;;;;;;4.20;3.10;;;;;;;;;;4997377;28;20892;-74
2021/10/29 17:31:36;;;;;;;10.20;4.47;;;;;;;;;;4996694;28;20516;-75
2021/10/29 17:34:02;;;;;;;12.70;5.97;;;;;;;;;;4997362;28;20820;-77
2021/10/29 17:36:30;;;;;;;9.60;3.97;;;;;;;;;;4995973;28;20453;-76
2021/10/29 17:38:56;;;;;;;9.10;5.90;;;;;;;;;;4997198;28;20385;-76
2021/10/29 17:41:22;;;;;;;8.40;5.70;;;;;;;;;;4996812;28;20468;-77
2021/10/29 17:43:49;;;;;;;6.80;4.13;;;;;;;;;;4997527;28;20385;-75
2021/10/29 17:46:15;;;;;;;4.57;3.60;;;;;;;;;;4997224;28;20469;-76
2021/10/29 17:48:41;;;;;;;15.20;5.97;;;;;;;;;;4997182;28;20505;-75
2021/10/29 17:51:07;;;;;;;6.00;4.63;;;;;;;;;;4996678;28;20411;-76
2021/10/29 17:53:33;;;;;;;4.63;3.57;;;;;;;;;;4996767;28;20495;-76
2021/10/29 17:56:00;;;;;;;4.60;4.13;;;;;;;;;;4996768;28;20447;-76
2021/10/29 17:58:26;;;;;;;4.40;3.30;;;;;;;;;;4996446;28;20469;-79
2021/10/29 18:00:52;;;;;;;6.30;4.10;;;;;;;;;;4995766;28;20399;-79
2021/10/29 18:03:18;;;;;;;4.50;3.70;;;;;;;;;;4996183;28;20422;-78
2021/10/29 18:05:45;;;;;;;3.40;3.10;;;;;;;;;;4996844;28;20374;-79
2021/10/29 18:08:13;;;;;;;4.37;3.37;;;;;;;;;;4996885;28;20402;-79
2021/10/29 18:10:39;;;;;;;5.17;3.57;;;;;;;;;;4995707;28;20426;-77
2021/10/29 18:13:05;;;;;;;6.80;2.80;;;;;;;;;;4996188;28;20581;-79
2021/10/29 18:15:32;;;;;;;3.43;2.90;;;;;;;;;;4996786;28;20902;-79
2021/10/29 18:17:58;;;;;;;5.00;3.20;;;;;;;;;;4996460;28;20466;-77
2021/10/29 18:20:24;;;;;;;4.60;3.30;;;;;;;;;;4996233;28;20454;-78
2021/10/29 18:22:50;;;;;;;3.00;2.70;;;;;;;;;;4994949;28;20489;-78
2021/10/29 18:25:16;;;;;;;9.43;4.50;;;;;;;;;;4996590;28;20415;-78
2021/10/29 18:27:43;;;;;;;8.67;4.67;;;;;;;;;;4995174;28;20430;-79
2021/10/29 18:30:10;;;;;;;6.83;4.70;;;;;;;;;;4996053;28;20426;-78
2021/10/29 18:32:36;;;;;;;4.80;3.73;;;;;;;;;;4996139;28;20432;-77
2021/10/29 18:35:02;;;;;;;7.90;3.87;;;;;;;;;;4996258;28;20418;-79
2021/10/29 18:37:31;;;;;;;5.07;3.50;;;;;;;;;;4996031;28;20870;-79
2021/10/29 18:39:57;;;;;;;6.00;3.73;;;;;;;;;;4994929;28;20481;-77
2021/10/29 18:42:23;;;;;;;4.83;3.40;;;;;;;;;;4994471;28;20446;-78
2021/10/29 18:44:50;;;;;;;5.10;3.30;;;;;;;;;;4996019;28;20411;-77
2021/10/29 18:47:16;;;;;;;5.00;3.93;;;;;;;;;;4995918;28;20764;-77
2021/10/29 18:49:42;;;;;;;4.00;3.60;;;;;;;;;;4995945;28;20417;-77
2021/10/29 18:52:09;;;;;;;5.67;3.40;;;;;;;;;;4995515;28;20430;-76
2021/10/29 18:54:35;;;;;;;5.73;3.93;;;;;;;;;;4995771;28;20389;-78
2021/10/29 18:57:04;;;;;;;3.70;3.20;;;;;;;;;;4995565;28;20459;-78
2021/10/29 18:59:33;;;;;;;5.23;3.80;;;;;;;;;;4994464;28;20916;-78
2021/10/29 19:01:59;;;;;;;9.10;4.10;;;;;;;;;;4995256;28;20484;-79
2021/10/29 19:04:25;;;;;;;4.37;3.90;;;;;;;;;;4995637;28;20397;-78
2021/10/29 19:07:01;;;;;;;3.63;3.30;;;;;;;;;;4995742;28;20415;-77
2021/10/29 19:09:27;;;;;;;5.47;3.73;;;;;;;;;;4994632;28;20417;-78
2021/10/29 19:11:53;;;;;;;6.07;3.70;;;;;;;;;;4993849;28;20413;-77
2021/10/29 19:14:22;;;;;;;5.00;3.40;;;;;;;;;;4995425;28;20779;-77
2021/10/29 19:16:49;;;;;;;4.00;3.50;;;;;;;;;;4995187;28;20470;-76
2021/10/29 19:19:15;;;;;;;4.17;3.17;;;;;;;;;;4995298;28;20461;-76
2021/10/29 19:21:41;;;;;;;5.13;3.63;;;;;;;;;;4994957;28;20466;-76
2021/10/29 19:24:07;;;;;;;3.77;3.37;;;;;;;;;;4995171;28;20421;-76
2021/10/29 19:26:33;;;;;;;4.57;3.73;;;;;;;;;;4993965;28;20481;-77
2021/10/29 19:28:59;;;;;;;4.93;3.70;;;;;;;;;;4995103;28;20423;-77
2021/10/29 19:31:25;;;;;;;6.73;3.90;;;;;;;;;;4993787;28;20431;-78